PAUNPASK

Guest
Details From PAUN - Unalakleet
To PASK - Selawik
Flight Number -
Tags Generated
Created
Modified
Stats Distance 164 nm / 305 km
Max Altitude 0 ft / 0 m
Waypoints 2
Social Downloads 0
Likes 0
Share VATSIM

Download

Looking for another format? Having issues loading an existing format? Contact us
Advertisement - Login to hide

Notes

Generated

Route

PAUN PASK

ID Type Via Altitude Latitude Longitude Leg Dist Tot Dist Heading (true) Name
O PAUN APT - 0 ft / 0 m 63.88345˚ -160.79903˚ - 0 nm - -
O PASK APT - 0 ft / 0 m 66.60159˚ -159.99658˚ 164 nm 164 nm 7° / 7° -

Altitude Profile

Advertisement - Login to hide

Weather


0- 5 10 15 20 25 30 35+ Temperature / ° C

Clouds and Precipitation
Forecast for 2018-05-25 18:00 UTC. Updated 4 hours ago

Ground ~20,000 ft ~40,000 ft Winds

PAUN

Details ICAO PAUN (UNK)
Name Unalakleet
Region USA (Alaska)
Timezone America/Anchorage (UTC-8.0)
Stats Elevation 68 ft / 21 m (AMSL)
Location 63.886590° -160.796931°
Runways 2
Magnetic Variation 12.022° E

METAR

PAUN 252056Z AUTO 31010KT 10SM OVC055 07/03 A2974 RMK AO2 SLP074 T00670033 50002

Decode

TAF

TAF PAUN 251720Z 2518/2618 08010KT P6SM VCSH BKN050 BKN100 FM260000 29010KT P6SM BKN100

Decode

Departure Runways

ID Width Length Bearing (true) Bearing (mag) Surface Threshold Offset Overrun Length
15 151 ft / 46 m 5,990 ft / 1,826 m 164.15° 152.13° Asphalt 0 ft / 0 m 499 ft / 152 m
26 79 ft / 24 m 1,993 ft / 608 m 278.43° 266.41° Asphalt 0 ft / 0 m 0 ft / 0 m
33 151 ft / 46 m 5,990 ft / 1,826 m 344.16° 332.14° Asphalt 0 ft / 0 m 0 ft / 0 m
8 79 ft / 24 m 1,993 ft / 608 m 98.42° 86.40° Asphalt 0 ft / 0 m 0 ft / 0 m

PASK

Details ICAO PASK (WLK)
Name SELAWIK
Region USA (Alaska)
Timezone America/Anchorage (UTC-8.0)
Stats Elevation 13 ft / 4 m (AMSL)
Location 66.600159° -159.985875°
Runways 2
Magnetic Variation 12.568° E

METAR

PASK 252056Z AUTO 24009KT 10SM OVC008 03/00 A2978 RMK AO2 SLP080 T00280000 58003 $

Decode

TAF

Not found

Destination Runways

ID Width Length Bearing (true) Bearing (mag) Surface Threshold Offset Overrun Length
03 59 ft / 18 m 2,992 ft / 912 m 53.27° 40.70° Gravel 0 ft / 0 m 0 ft / 0 m
09 59 ft / 18 m 2,650 ft / 808 m 106.30° 93.73° Gravel 0 ft / 0 m 0 ft / 0 m
21 59 ft / 18 m 2,992 ft / 912 m 233.28° 220.71° Gravel 0 ft / 0 m 0 ft / 0 m
27 59 ft / 18 m 2,650 ft / 808 m 286.32° 273.75° Gravel 0 ft / 0 m 0 ft / 0 m